Mobile, AL

8:17 PM CDT on September 26, 2016 (GMT -0500)
Downtown Waterfront | | Change Station

Elev 13 ft 30.69 °N, 88.04 °W | Updated 4 seconds ago

Clear
Clear
75.9 °F
Feels Like 76 °F
N
0.0
Wind Variable Wind from WNW
Gusts 4.0 mph

Today
High -- | Low -- °F
--% Chance of Precip.
Yesterday
High -- | Low -- °F
Precip. -- in
Pressure 29.97 in
Visibility 10.0 miles
Clouds Clear
Heat Index 76 °F
Dew Point 71 °F
Humidity 84%
Rainfall 0.18 in
Snow Depth Not available.
6:43 AM 6:43 PM
Waning Crescent, 15% visible
METAR KBFM 270053Z 00000KT 10SM CLR 24/23 A2997 RMK AO2 SLP148 T02390233
Pressure 29.97 in
Visibility 10.0 miles
Clouds Clear
Heat Index 76 °F
Dew Point 71 °F
Humidity 84%
Rainfall 0.18 in
Snow Depth Not available.
6:43 AM 6:43 PM
Waning Crescent, 15% visible
METAR KBFM 270053Z 00000KT 10SM CLR 24/23 A2997 RMK AO2 SLP148 T02390233

10-Day Weather Forecast

Almanac

Astronomy

Sep. 26, 2016 Rise Set
Actual Time
Civil Twilight
Nautical Twilight
Astronomical Twilight
Moon
Length of Visible Light
Length of Day
Tomorrow will be .
, % of the Moon is Illuminated

Today's Extremes

State Highs State Lows

Community

WunderPhotos

Upload Photos

1,942,001 photos uploaded!

WunderBlog® & News

Nearby

Air Quality

  Air Quality AQ Index Pollutant
Not available.

Snow Depth

Station Depth Elevation

Earthquake Activity

City Distance Mag. Time & Date
Minimum magnitude displayed is 2.5.

Coastal Water Temperatures

Place Temperature

Stations

Nearby Weather Stations

Station Location Temp. Windchill Dew Point Humidity Wind Precip. Elev Updated Type
                   

Watches & Warnings

There are currently no watches in effect.